Time;durP1;ratioP1;P1;durP2;ratioP2;P2;SDS_P1;SDS_P2;PMS_P1;PMS_P2;Temp;Humidity;BMP_temperature;BMP_pressure;BME280_temperature;BME280_humidity;BME280_pressure;Samples;Min_cycle;Max_cycle;Signal;HPM_P1;HPM_P2
2021/07/18 00:01:58;;;;;;;4.63;2.10;;;;;;;17.69;72.11;101448.03;5003819;28;20210;-67
2021/07/18 00:04:24;;;;;;;4.53;2.23;;;;;;;17.64;72.35;101447.56;5009289;28;20207;-67
2021/07/18 00:06:51;;;;;;;3.13;2.27;;;;;;;17.61;72.28;101450.44;5010064;28;20618;-67
2021/07/18 00:09:18;;;;;;;3.20;2.00;;;;;;;17.57;72.49;101451.66;5005541;28;20212;-67
2021/07/18 00:11:44;;;;;;;7.30;2.97;;;;;;;17.54;72.70;101452.81;5006321;28;20212;-67
2021/07/18 00:14:12;;;;;;;4.33;2.80;;;;;;;17.52;72.80;101448.50;5010612;28;20201;-67
2021/07/18 00:16:39;;;;;;;4.63;2.63;;;;;;;17.50;73.11;101455.84;5009769;28;20605;-67
2021/07/18 00:19:06;;;;;;;2.97;2.20;;;;;;;17.50;73.30;101450.47;5010638;28;20661;-67
2021/07/18 00:21:33;;;;;;;2.83;2.43;;;;;;;17.46;73.50;101446.28;5007804;28;20205;-67
2021/07/18 00:23:59;;;;;;;5.37;2.43;;;;;;;17.44;73.49;101442.88;5006115;28;20735;-67
2021/07/18 00:26:26;;;;;;;5.80;2.57;;;;;;;17.41;73.60;101445.78;5005829;28;20736;-68
2021/07/18 00:28:53;;;;;;;3.33;2.10;;;;;;;17.38;74.01;101436.13;5005329;28;20212;-67
2021/07/18 00:31:21;;;;;;;5.27;2.80;;;;;;;17.36;74.09;101446.19;5001153;28;20213;-68
2021/07/18 00:33:47;;;;;;;6.50;2.70;;;;;;;17.34;74.44;101453.53;5004403;28;20204;-66
2021/07/18 00:36:14;;;;;;;4.67;2.43;;;;;;;17.31;74.68;101451.91;5001329;28;20227;-67
2021/07/18 00:38:41;;;;;;;4.70;2.33;;;;;;;17.30;74.73;101450.22;4997457;28;20218;-67
2021/07/18 00:41:07;;;;;;;7.33;2.73;;;;;;;17.27;74.87;101450.44;5005960;28;20216;-67
2021/07/18 00:43:34;;;;;;;4.80;2.30;;;;;;;17.24;74.74;101452.50;5000830;28;20228;-68
2021/07/18 00:46:01;;;;;;;3.80;3.00;;;;;;;17.21;74.95;101452.75;5001165;28;20220;-67
2021/07/18 00:48:31;;;;;;;3.93;2.70;;;;;;;17.18;75.12;101447.63;5008291;28;20688;-67
2021/07/18 00:50:59;;;;;;;5.07;2.80;;;;;;;17.16;75.51;101466.59;5002597;28;20213;-67
2021/07/18 00:53:26;;;;;;;4.93;2.83;;;;;;;17.14;75.53;101452.38;5002690;28;20205;-67
2021/07/18 00:55:55;;;;;;;6.40;2.53;;;;;;;17.13;75.51;101455.19;5008556;28;20233;-67
2021/07/18 00:58:24;;;;;;;7.00;3.10;;;;;;;17.12;75.69;101458.88;5001785;28;20236;-67
2021/07/18 01:00:51;;;;;;;5.13;3.00;;;;;;;17.12;75.72;101464.25;5001851;28;20362;-68
2021/07/18 01:03:18;;;;;;;6.77;3.00;;;;;;;17.10;75.73;101464.38;5005764;28;20693;-67
2021/07/18 01:05:46;;;;;;;4.43;2.73;;;;;;;17.09;75.72;101454.56;5001335;28;20499;-67
2021/07/18 01:08:13;;;;;;;5.27;3.20;;;;;;;17.07;75.80;101451.13;5003301;28;20224;-67
2021/07/18 01:10:39;;;;;;;5.13;3.03;;;;;;;17.06;75.96;101454.81;5001270;28;20205;-67
2021/07/18 01:13:06;;;;;;;3.17;2.87;;;;;;;17.07;76.10;101450.28;5003008;28;20288;-67
2021/07/18 01:15:33;;;;;;;4.90;2.60;;;;;;;17.05;76.13;101453.09;5012148;28;20216;-67
2021/07/18 01:18:00;;;;;;;5.53;3.23;;;;;;;17.03;76.22;101452.34;5011030;28;20209;-68
2021/07/18 01:20:27;;;;;;;4.97;3.33;;;;;;;17.03;76.46;101463.13;5000069;28;20700;-67
2021/07/18 01:22:56;;;;;;;7.00;3.27;;;;;;;17.02;76.73;101454.19;5006633;28;20240;-67
2021/07/18 01:25:22;;;;;;;4.37;3.30;;;;;;;17.02;76.60;101456.00;5005817;28;20207;-67
2021/07/18 01:27:49;;;;;;;6.13;3.80;;;;;;;17.02;76.89;101464.09;5001129;28;20873;-67
2021/07/18 01:30:16;;;;;;;5.57;4.17;;;;;;;17.00;76.94;101456.16;5009487;28;20743;-67
2021/07/18 01:32:43;;;;;;;8.73;4.20;;;;;;;16.99;77.20;101458.97;5001619;28;20205;-67
2021/07/18 01:35:12;;;;;;;5.30;4.40;;;;;;;16.97;77.51;101458.22;4994612;28;20219;-67
2021/07/18 01:37:39;;;;;;;6.47;4.43;;;;;;;16.97;77.61;101456.41;5000108;28;20223;-67
2021/07/18 01:40:10;;;;;;;6.73;4.57;;;;;;;16.98;77.88;101458.09;4999054;28;20205;-67
2021/07/18 01:42:37;;;;;;;7.93;4.90;;;;;;;16.97;77.92;101463.59;4997920;28;20204;-67
2021/07/18 01:45:05;;;;;;;5.30;4.33;;;;;;;16.96;78.18;101459.19;5006145;28;20704;-67
2021/07/18 01:47:32;;;;;;;8.23;4.87;;;;;;;16.96;78.24;101459.19;5011235;28;20230;-67
2021/07/18 01:49:58;;;;;;;7.97;4.97;;;;;;;16.97;78.67;101463.59;5008156;28;20686;-67
2021/07/18 01:52:25;;;;;;;7.33;5.13;;;;;;;16.99;78.52;101475.13;4996965;28;20225;-67
2021/07/18 01:54:55;;;;;;;8.53;5.60;;;;;;;16.98;78.65;101462.63;5009098;28;20204;-67
2021/07/18 01:57:23;;;;;;;10.50;5.23;;;;;;;16.98;78.92;101458.09;5029931;23;20227;-81
2021/07/18 01:59:50;;;;;;;8.93;5.80;;;;;;;16.98;79.22;101468.00;5018978;28;20293;-82
2021/07/18 02:02:17;;;;;;;9.73;5.67;;;;;;;16.99;79.35;101465.22;5022291;28;20204;-81
2021/07/18 02:04:44;;;;;;;8.17;5.83;;;;;;;16.99;79.71;101467.91;5018120;28;20225;-81
2021/07/18 02:07:10;;;;;;;12.87;6.57;;;;;;;16.99;79.57;101464.34;5021104;28;20212;-81
2021/07/18 02:09:38;;;;;;;7.13;6.07;;;;;;;17.02;79.87;101468.66;5019902;28;20203;-81
2021/07/18 02:12:06;;;;;;;7.33;5.83;;;;;;;17.02;80.05;101464.09;5021158;28;20213;-82
2021/07/18 02:14:34;;;;;;;9.63;6.70;;;;;;;17.03;80.00;101463.13;5012290;28;20271;-82
2021/07/18 02:17:01;;;;;;;10.33;6.20;;;;;;;17.03;80.22;101465.81;5014194;28;20213;-81
2021/07/18 02:19:29;;;;;;;7.93;6.30;;;;;;;17.04;80.36;101462.13;5017029;28;20206;-82
2021/07/18 02:21:56;;;;;;;8.47;6.70;;;;;;;17.02;80.55;101462.25;5013925;28;20201;-81
2021/07/18 02:24:22;;;;;;;8.93;6.10;;;;;;;17.02;80.46;101464.94;5016691;28;20232;-82
2021/07/18 02:26:49;;;;;;;8.83;6.60;;;;;;;17.03;80.58;101460.41;5007959;28;20212;-82
2021/07/18 02:29:16;;;;;;;9.30;6.60;;;;;;;17.02;80.62;101459.56;5013378;28;20658;-82
2021/07/18 02:31:44;;;;;;;12.77;6.40;;;;;;;17.04;80.74;101464.84;5010893;28;20684;-81
2021/07/18 02:34:10;;;;;;;11.77;7.07;;;;;;;17.06;80.89;101459.34;5021691;28;20584;-81
2021/07/18 02:36:37;;;;;;;12.17;7.80;;;;;;;17.07;80.92;101459.22;5016953;28;20573;-82
2021/07/18 02:39:05;;;;;;;12.27;7.70;;;;;;;17.08;80.84;101455.56;5015856;28;20578;-81
2021/07/18 02:41:34;;;;;;;10.90;8.17;;;;;;;17.10;81.15;101455.44;5008096;28;20213;-80
2021/07/18 02:44:01;;;;;;;12.03;7.27;;;;;;;17.09;81.28;101457.25;5006081;28;20753;-81
2021/07/18 02:46:27;;;;;;;10.87;7.73;;;;;;;17.09;81.15;101454.56;5012752;28;20209;-81
2021/07/18 02:48:55;;;;;;;11.50;7.73;;;;;;;17.10;81.24;101444.66;5005610;28;20577;-81
2021/07/18 02:51:22;;;;;;;10.97;7.83;;;;;;;17.10;81.14;101453.59;5002566;28;20926;-80
2021/07/18 02:53:48;;;;;;;10.80;7.93;;;;;;;17.10;81.58;101452.75;4998522;28;20227;-81
2021/07/18 02:56:15;;;;;;;13.77;8.07;;;;;;;17.11;81.77;101446.38;5013800;28;20572;-79
2021/07/18 02:58:41;;;;;;;9.63;7.60;;;;;;;17.10;81.58;101442.84;5010272;28;20213;-80
2021/07/18 03:01:08;;;;;;;13.60;7.67;;;;;;;17.11;81.63;101452.63;5010387;28;20554;-84
2021/07/18 03:03:35;;;;;;;9.83;8.13;;;;;;;17.11;81.68;101447.25;4997936;28;20229;-82
2021/07/18 03:06:03;;;;;;;9.03;7.20;;;;;;;17.11;81.85;101441.84;5001892;28;20211;-83
2021/07/18 03:08:29;;;;;;;9.97;7.50;;;;;;;17.11;81.85;101444.56;5008370;28;20838;-81
2021/07/18 03:10:56;;;;;;;14.57;8.50;;;;;;;17.13;81.88;101439.06;5009074;28;20216;-80
2021/07/18 03:13:22;;;;;;;14.43;8.47;;;;;;;17.13;81.98;101450.66;5016181;28;20204;-82
2021/07/18 03:15:49;;;;;;;13.13;7.83;;;;;;;17.14;82.02;101449.69;5007792;28;20212;-81
2021/07/18 03:18:15;;;;;;;11.77;7.33;;;;;;;17.14;82.05;101432.69;5002966;28;20205;-82
2021/07/18 03:20:42;;;;;;;10.17;8.00;;;;;;;17.15;82.16;101429.88;5008045;28;20211;-83
2021/07/18 03:23:10;;;;;;;10.53;7.63;;;;;;;17.15;82.07;101435.25;5004702;28;20209;-80
2021/07/18 03:25:37;;;;;;;13.03;8.33;;;;;;;17.16;82.05;101441.50;5007377;28;20228;-82
2021/07/18 03:28:03;;;;;;;8.63;7.40;;;;;;;17.16;82.24;101433.44;5015124;28;20563;-80
2021/07/18 03:30:30;;;;;;;12.00;8.33;;;;;;;17.17;82.23;101436.00;5003720;28;20205;-79
2021/07/18 03:32:56;;;;;;;9.87;7.93;;;;;;;17.19;82.14;101438.59;5014493;28;20211;-80
2021/07/18 03:35:23;;;;;;;12.10;8.90;;;;;;;17.20;81.97;101442.97;5012891;28;20229;-79
2021/07/18 03:37:50;;;;;;;11.33;7.60;;;;;;;17.20;82.11;101445.66;5010543;28;20955;-79
2021/07/18 03:40:18;;;;;;;11.33;8.83;;;;;;;17.19;82.16;101444.81;5020447;28;20211;-79
2021/07/18 03:42:44;;;;;;;12.57;8.13;;;;;;;17.18;82.10;101437.72;5021316;28;20566;-80
2021/07/18 03:45:12;;;;;;;9.83;7.90;;;;;;;17.17;82.20;101438.69;5013007;28;20242;-81
2021/07/18 03:47:40;;;;;;;13.97;8.93;;;;;;;17.17;82.26;101441.38;5015862;28;20200;-80
2021/07/18 03:50:08;;;;;;;10.50;7.77;;;;;;;17.15;82.25;101448.72;5021478;28;20205;-81
2021/07/18 03:52:34;;;;;;;11.60;7.70;;;;;;;17.15;82.62;101443.34;5013409;28;20209;-81
2021/07/18 03:55:01;;;;;;;9.07;7.77;;;;;;;17.14;82.30;101444.31;5012437;28;20232;-80
2021/07/18 03:57:29;;;;;;;9.57;8.57;;;;;;;17.14;82.23;101441.63;5014306;28;20313;-81
2021/07/18 03:59:56;;;;;;;9.73;7.13;;;;;;;17.14;82.33;101446.16;5011396;28;20570;-81
2021/07/18 04:02:22;;;;;;;11.53;7.90;;;;;;;17.14;82.33;101441.63;5012783;28;20209;-79
2021/07/18 04:04:49;;;;;;;9.73;8.23;;;;;;;17.15;82.32;101442.47;5007469;28;20244;-80
2021/07/18 04:07:16;;;;;;;8.33;7.17;;;;;;;17.16;82.51;101447.75;5009335;28;20242;-80
2021/07/18 04:09:42;;;;;;;13.13;8.10;;;;;;;17.17;82.41;101448.59;5015715;28;20204;-81
2021/07/18 04:12:09;;;;;;;11.97;8.47;;;;;;;17.18;82.45;101455.72;5005194;28;20219;-80
2021/07/18 04:14:37;;;;;;;11.37;7.83;;;;;;;17.18;82.40;101453.00;5019186;28;20232;-81
2021/07/18 04:17:04;;;;;;;11.63;8.03;;;;;;;17.20;82.42;101451.03;5010586;28;20686;-80
2021/07/18 04:19:30;;;;;;;10.67;7.83;;;;;;;17.20;82.38;101445.66;5012615;28;20576;-79
2021/07/18 04:21:57;;;;;;;12.27;7.93;;;;;;;17.20;82.44;101457.28;5022291;28;20212;-81
2021/07/18 04:24:23;;;;;;;11.30;8.43;;;;;;;17.22;82.38;101454.47;5015188;28;20244;-80
2021/07/18 04:26:50;;;;;;;10.77;7.63;;;;;;;17.21;82.33;101452.75;5015227;28;20211;-81
2021/07/18 04:29:16;;;;;;;11.17;7.90;;;;;;;17.22;82.46;101451.78;5009497;28;20212;-81
2021/07/18 04:31:44;;;;;;;16.27;8.83;;;;;;;17.24;82.54;101453.38;5010039;28;20205;-81
2021/07/18 04:34:11;;;;;;;11.00;7.63;;;;;;;17.24;82.38;101453.38;5012135;28;20221;-81
2021/07/18 04:36:37;;;;;;;11.47;7.60;;;;;;;17.28;82.54;101452.16;5004796;28;20210;-80
2021/07/18 04:39:04;;;;;;;11.57;8.30;;;;;;;17.31;82.51;101459.16;5013006;28;20205;-82
2021/07/18 04:41:30;;;;;;;11.83;8.53;;;;;;;17.32;82.44;101469.78;5009538;28;20656;-80
2021/07/18 04:43:57;;;;;;;10.10;8.17;;;;;;;17.35;82.38;101469.56;5008993;28;20241;-82
2021/07/18 04:46:23;;;;;;;9.67;7.70;;;;;;;17.39;82.36;101474.69;5007099;28;20224;-82
2021/07/18 04:48:51;;;;;;;15.67;8.97;;;;;;;17.40;82.84;101469.16;5008612;28;20205;-81
2021/07/18 04:51:18;;;;;;;10.07;7.50;;;;;;;17.43;82.49;101462.69;5019743;28;20206;-81
2021/07/18 04:53:45;;;;;;;13.50;8.50;;;;;;;17.46;82.54;101468.69;5010140;28;20236;-81
2021/07/18 04:56:11;;;;;;;9.93;7.77;;;;;;;17.49;82.41;101463.06;5019342;28;20217;-81
2021/07/18 04:58:38;;;;;;;10.90;8.00;;;;;;;17.51;82.22;101471.03;5016069;28;20213;-81
2021/07/18 05:01:05;;;;;;;10.93;7.80;;;;;;;17.53;82.13;101464.56;5015099;28;20240;-80
2021/07/18 05:03:32;;;;;;;10.10;8.37;;;;;;;17.55;82.11;101462.59;5004403;28;20217;-80
2021/07/18 05:06:00;;;;;;;8.77;7.57;;;;;;;17.58;81.94;101464.16;5008923;28;20199;-79
2021/07/18 05:08:27;;;;;;;10.07;7.97;;;;;;;17.59;81.92;101457.78;5012247;28;20741;-82
2021/07/18 05:10:54;;;;;;;10.60;8.00;;;;;;;17.61;81.92;101467.47;5008060;28;20216;-82
2021/07/18 05:13:20;;;;;;;11.67;7.90;;;;;;;17.63;81.73;101462.81;5013730;28;20208;-81
2021/07/18 05:15:47;;;;;;;10.37;7.97;;;;;;;17.66;81.77;101469.84;5002661;28;20201;-80
2021/07/18 05:18:15;;;;;;;12.60;8.13;;;;;;;17.69;81.84;101467.75;5019240;28;20205;-82
2021/07/18 05:20:42;;;;;;;12.43;8.77;;;;;;;17.72;81.56;101468.50;5005701;28;20576;-81
2021/07/18 05:23:11;;;;;;;13.57;8.57;;;;;;;17.74;81.36;101467.38;5006751;28;20292;-82
2021/07/18 05:25:38;;;;;;;10.50;8.53;;;;;;;17.76;81.33;101462.72;5010181;28;20243;-82
2021/07/18 05:28:06;;;;;;;11.00;8.83;;;;;;;17.80;81.16;101466.03;5012037;28;20205;-81
2021/07/18 05:30:33;;;;;;;12.97;8.60;;;;;;;17.80;81.11;101461.50;5014265;28;20678;-80
2021/07/18 05:32:59;;;;;;;14.67;9.17;;;;;;;17.84;80.97;101465.66;5012211;28;20221;-80
2021/07/18 05:35:26;;;;;;;11.90;8.97;;;;;;;17.87;80.91;101468.13;5014401;28;20225;-81
2021/07/18 05:37:52;;;;;;;11.93;8.53;;;;;;;17.89;80.68;101465.31;5010434;28;20702;-81
2021/07/18 05:40:20;;;;;;;12.03;8.70;;;;;;;17.91;80.72;101468.72;5002739;28;20214;-81
2021/07/18 05:42:47;;;;;;;12.43;8.67;;;;;;;17.91;80.50;101474.97;5007900;28;20659;-81
2021/07/18 05:45:15;;;;;;;11.03;7.67;;;;;;;17.92;80.25;101484.75;5015316;28;20237;-82
2021/07/18 05:47:41;;;;;;;9.23;7.83;;;;;;;17.93;80.05;101481.06;4996474;28;20260;-81
2021/07/18 05:50:09;;;;;;;10.00;7.13;;;;;;;17.94;79.90;101484.63;5007874;28;20294;-81
2021/07/18 05:52:36;;;;;;;9.97;7.47;;;;;;;17.94;79.66;101484.63;5014461;28;20679;-81
2021/07/18 05:55:03;;;;;;;12.77;7.80;;;;;;;17.95;79.49;101480.94;5007886;28;20234;-81
2021/07/18 05:57:31;;;;;;;13.67;8.03;;;;;;;17.98;79.28;101481.56;5009771;28;20217;-80
2021/07/18 05:59:57;;;;;;;11.93;8.20;;;;;;;18.00;79.21;101476.91;5014047;28;20210;-80
2021/07/18 06:02:24;;;;;;;10.47;7.70;;;;;;;18.03;78.98;101494.69;5011270;28;20210;-81
2021/07/18 06:04:50;;;;;;;13.77;8.60;;;;;;;18.05;78.72;101492.72;5011754;28;20664;-81
2021/07/18 06:07:18;;;;;;;11.83;8.87;;;;;;;18.07;78.48;101489.91;5008335;28;20221;-81
2021/07/18 06:09:44;;;;;;;10.87;8.40;;;;;;;18.08;78.34;101494.31;5007600;28;20207;-82
2021/07/18 06:12:11;;;;;;;10.57;8.47;;;;;;;18.12;77.98;101495.75;5014141;28;20210;-81
2021/07/18 06:14:39;;;;;;;11.07;8.33;;;;;;;18.13;78.08;101497.47;5011028;28;20227;-81
2021/07/18 06:17:07;;;;;;;8.80;7.93;;;;;;;18.17;77.93;101496.25;5013300;28;20312;-81
2021/07/18 06:19:33;;;;;;;13.83;9.17;;;;;;;18.19;77.74;101494.28;5009620;28;20225;-79
2021/07/18 06:22:00;;;;;;;12.03;9.07;;;;;;;18.23;77.54;101495.75;5013665;28;20267;-80
2021/07/18 06:24:26;;;;;;;10.70;9.00;;;;;;;18.26;77.59;101499.06;5008829;28;20241;-80
2021/07/18 06:26:53;;;;;;;10.10;8.57;;;;;;;18.28;77.42;101498.91;5007003;28;20218;-81
2021/07/18 06:29:19;;;;;;;13.20;8.50;;;;;;;18.31;77.35;101496.81;5024795;28;20210;-79
2021/07/18 06:31:47;;;;;;;9.87;8.03;;;;;;;18.35;77.00;101495.59;5024188;28;20599;-80
2021/07/18 06:34:21;;;;;;;13.03;9.70;;;;;;;18.41;76.98;101487.97;5023766;28;20225;-80
2021/07/18 06:36:48;;;;;;;13.17;9.00;;;;;;;18.47;76.85;101493.69;5025732;28;20221;-79
2021/07/18 06:39:15;;;;;;;10.73;8.40;;;;;;;18.52;76.64;101482.53;5028142;28;20205;-79
2021/07/18 06:41:43;;;;;;;10.63;8.50;;;;;;;18.58;76.40;101491.00;5017630;28;20721;-81
2021/07/18 06:44:10;;;;;;;12.83;8.93;;;;;;;18.66;76.20;101493.91;5017576;28;20253;-82
2021/07/18 06:46:38;;;;;;;11.70;8.53;;;;;;;18.73;76.06;101497.81;5028190;28;20588;-81
2021/07/18 06:49:06;;;;;;;9.50;7.43;;;;;;;18.77;75.64;101490.34;5018540;28;20206;-81
2021/07/18 06:51:33;;;;;;;9.73;8.40;;;;;;;18.84;75.56;101490.66;5027968;28;20210;-82
2021/07/18 06:53:59;;;;;;;13.43;8.70;;;;;;;18.98;75.68;101498.47;5023879;28;20238;-81
2021/07/18 06:56:26;;;;;;;11.87;9.30;;;;;;;19.12;75.25;101498.13;5027142;28;20280;-82
2021/07/18 06:58:52;;;;;;;13.43;9.17;;;;;;;19.20;74.75;101508.25;5017213;28;20691;-81
2021/07/18 07:01:19;;;;;;;10.63;8.40;;;;;;;19.25;74.51;101506.88;5016603;28;20213;-80
2021/07/18 07:03:46;;;;;;;11.90;8.53;;;;;;;19.29;73.93;101504.78;5007737;28;20232;-81
2021/07/18 07:06:13;;;;;;;11.67;8.77;;;;;;;19.34;73.56;101503.41;5019632;28;20229;-80
2021/07/18 07:08:40;;;;;;;12.50;8.70;;;;;;;19.38;73.24;101506.66;5000738;28;20215;-81
2021/07/18 07:11:06;;;;;;;15.23;9.50;;;;;;;19.46;73.40;101509.56;5014856;28;20216;-81
2021/07/18 07:13:33;;;;;;;10.20;8.03;;;;;;;19.55;72.79;101502.53;5016261;28;20218;-80
2021/07/18 07:16:00;;;;;;;12.07;8.50;;;;;;;19.61;72.32;101500.16;5017841;28;20210;-81
2021/07/18 07:18:26;;;;;;;12.00;9.30;;;;;;;19.66;72.19;101500.59;5008795;28;20206;-80
2021/07/18 07:20:53;;;;;;;12.00;8.10;;;;;;;19.75;71.98;101494.38;5025698;28;20277;-80
2021/07/18 07:23:21;;;;;;;11.23;7.97;;;;;;;19.83;71.56;101501.81;5026780;28;20206;-80
2021/07/18 07:25:48;;;;;;;10.07;8.10;;;;;;;19.94;71.40;101492.72;5027126;28;20228;-80
2021/07/18 07:28:14;;;;;;;11.10;7.97;;;;;;;20.06;71.33;101492.47;5030876;28;20243;-80
2021/07/18 07:30:41;;;;;;;11.27;8.50;;;;;;;20.15;70.57;101489.97;5022718;28;20211;-81
2021/07/18 07:33:07;;;;;;;8.47;7.03;;;;;;;20.20;70.11;101491.25;5025394;28;20958;-82
2021/07/18 07:35:34;;;;;;;10.83;6.27;;;;;;;20.23;69.65;101491.00;5019634;28;20224;-80
2021/07/18 07:38:01;;;;;;;8.00;6.90;;;;;;;20.30;69.10;101491.25;5027502;28;20205;-79
2021/07/18 07:40:28;;;;;;;6.87;6.17;;;;;;;20.39;69.66;101498.59;5029116;28;20216;-80
2021/07/18 07:42:56;;;;;;;10.10;6.40;;;;;;;20.49;68.73;101488.63;5029352;28;20204;-80
2021/07/18 07:45:23;;;;;;;8.37;6.50;;;;;;;20.53;68.19;101494.63;5029889;28;20256;-80
2021/07/18 07:47:49;;;;;;;9.40;6.53;;;;;;;20.59;68.09;101494.91;5024284;28;20215;-80
2021/07/18 07:50:16;;;;;;;8.03;5.67;;;;;;;20.71;68.44;101487.50;5027144;28;20202;-77
2021/07/18 07:52:43;;;;;;;11.47;6.27;;;;;;;20.85;67.88;101483.50;5022255;28;20206;-77
2021/07/18 07:55:11;;;;;;;7.27;5.73;;;;;;;20.99;67.72;101485.75;5023403;28;20233;-81
2021/07/18 07:57:39;;;;;;;6.47;5.47;;;;;;;21.10;66.97;101477.50;5026870;28;20242;-81
2021/07/18 08:00:09;;;;;;;9.20;6.10;;;;;;;21.17;66.52;101481.31;5027365;28;20215;-81
2021/07/18 08:02:38;;;;;;;10.67;6.03;;;;;;;21.21;65.59;101476.50;5031141;28;20224;-80
2021/07/18 08:05:09;;;;;;;6.97;5.20;;;;;;;21.22;65.51;101487.19;5024281;28;20703;-80
2021/07/18 08:07:36;;;;;;;6.10;5.17;;;;;;;21.25;65.21;101486.91;5024356;28;20242;-82
2021/07/18 08:10:03;;;;;;;8.02;5.20;;;;;;;21.25;65.13;101477.94;5026369;28;20210;-79
2021/07/18 08:12:30;;;;;;;6.27;5.20;;;;;;;21.29;65.06;101476.66;5018171;28;20211;-80
2021/07/18 08:14:58;;;;;;;11.23;6.23;;;;;;;21.33;64.77;101476.19;5021074;28;20630;-81
2021/07/18 08:17:24;;;;;;;8.73;5.97;;;;;;;21.40;65.05;101471.91;5015944;28;20219;-80
2021/07/18 08:19:51;;;;;;;7.67;6.20;;;;;;;21.55;65.06;101476.84;5025969;23;20685;-66
2021/07/18 08:22:17;;;;;;;7.97;5.97;;;;;;;21.62;64.30;101477.97;5003461;28;20214;-67
2021/07/18 08:24:44;;;;;;;7.23;5.13;;;;;;;21.63;64.05;101477.81;5008354;28;20206;-66
2021/07/18 08:27:10;;;;;;;7.67;5.50;;;;;;;21.67;63.99;101471.09;5006329;28;20701;-68
2021/07/18 08:29:37;;;;;;;14.77;5.60;;;;;;;21.78;63.75;101467.34;5002128;28;20298;-67
2021/07/18 08:32:06;;;;;;;6.87;5.07;;;;;;;21.86;63.31;101459.28;5006005;28;20211;-68
2021/07/18 08:34:32;;;;;;;8.60;5.20;;;;;;;22.02;62.95;101466.81;5032228;23;20233;-70
2021/07/18 08:36:59;;;;;;;7.95;4.68;;;;;;;22.19;62.77;101463.28;5021726;28;20588;-68
2021/07/18 08:39:25;;;;;;;6.88;5.22;;;;;;;22.32;62.21;101469.19;5028507;28;20667;-69
2021/07/18 08:41:53;;;;;;;7.45;4.68;;;;;;;22.41;61.97;101454.69;5028604;28;20202;-65
2021/07/18 08:44:20;;;;;;;6.45;4.43;;;;;;;22.52;61.22;101472.63;5024576;28;20377;-68
2021/07/18 08:46:47;;;;;;;6.22;4.68;;;;;;;22.59;61.05;101468.25;5005255;28;20234;-69
2021/07/18 08:49:15;;;;;;;5.90;4.00;;;;;;;22.67;61.05;101468.34;5008694;28;20703;-69
2021/07/18 08:51:41;;;;;;;5.00;4.22;;;;;;;22.79;60.76;101460.84;5009297;28;20679;-69
2021/07/18 08:54:08;;;;;;;5.07;4.30;;;;;;;22.90;60.41;101460.63;5006746;28;20739;-69
2021/07/18 08:56:36;;;;;;;5.53;4.70;;;;;;;23.03;60.20;101454.75;5010113;28;20209;-69
2021/07/18 08:59:05;;;;;;;6.03;4.72;;;;;;;23.14;59.57;101459.94;5008679;28;20206;-69
2021/07/18 09:01:32;;;;;;;6.38;4.55;;;;;;;23.24;59.37;101462.56;5009624;28;20209;-69
2021/07/18 09:03:58;;;;;;;4.68;4.00;;;;;;;23.29;58.99;101458.31;5008120;28;20222;-69
2021/07/18 09:06:40;;;;;;;5.53;4.28;;;;;;;23.30;58.78;101457.31;5008448;28;20226;-69
2021/07/18 09:09:08;;;;;;;5.28;4.05;;;;;;;23.33;58.81;101456.16;5008702;28;20202;-68
2021/07/18 09:11:35;;;;;;;4.38;3.92;;;;;;;23.39;58.64;101450.06;5007038;28;20214;-68
2021/07/18 09:14:04;;;;;;;5.00;3.80;;;;;;;23.47;58.59;101453.69;5010785;28;20620;-67
2021/07/18 09:16:32;;;;;;;7.15;4.20;;;;;;;23.58;58.21;101449.88;5010972;28;20211;-71
2021/07/18 09:19:33;;;;;;;6.55;3.92;;;;;;;23.68;58.21;101447.88;5009341;28;20670;-69
2021/07/18 09:22:14;;;;;;;4.68;3.80;;;;;;;23.83;57.92;101442.66;5010674;28;20553;-69
2021/07/18 09:24:43;;;;;;;5.18;4.20;;;;;;;23.93;57.47;101446.13;5009307;28;20222;-69
2021/07/18 09:27:13;;;;;;;5.05;4.50;;;;;;;24.01;57.25;101440.69;5006703;28;20225;-69
2021/07/18 09:29:42;;;;;;;5.18;4.68;;;;;;;24.08;56.97;101441.75;5009562;28;20299;-68
2021/07/18 09:32:11;;;;;;;5.43;4.25;;;;;;;24.11;56.12;101444.13;5010587;28;20209;-69
2021/07/18 09:34:39;;;;;;;4.60;4.20;;;;;;;24.14;56.44;101440.22;5008869;28;20289;-69
2021/07/18 09:37:15;;;;;;;4.70;4.25;;;;;;;24.19;56.40;101438.69;5008648;28;20213;-69
2021/07/18 09:39:49;;;;;;;6.07;4.20;;;;;;;24.22;55.89;101443.81;5010046;28;20206;-69
2021/07/18 09:42:32;;;;;;;4.72;3.75;;;;;;;24.32;56.02;101442.84;5010042;28;20210;-69
2021/07/18 09:44:59;;;;;;;4.88;4.00;;;;;;;24.39;55.71;101441.16;5005986;28;20224;-70
2021/07/18 09:47:27;;;;;;;6.32;3.90;;;;;;;24.47;55.58;101443.91;5010269;28;20222;-69
2021/07/18 09:49:54;;;;;;;4.00;3.60;;;;;;;24.55;55.33;101439.31;5009989;28;20253;-70
2021/07/18 09:52:23;;;;;;;6.35;4.35;;;;;;;24.65;54.90;101443.75;5010907;28;20213;-69
2021/07/18 09:54:52;;;;;;;5.88;4.30;;;;;;;24.67;54.52;101437.13;5006482;28;20234;-69
2021/07/18 09:57:33;;;;;;;4.70;4.15;;;;;;;24.72;54.17;101429.25;5007908;28;20198;-70
2021/07/18 09:59:59;;;;;;;4.63;3.72;;;;;;;24.82;54.06;101429.97;5008019;28;20208;-69
2021/07/18 10:02:26;;;;;;;5.15;4.68;;;;;;;24.86;53.73;101431.31;5007886;28;20210;-68
2021/07/18 10:04:53;;;;;;;4.40;4.00;;;;;;;24.96;53.88;101433.88;5007544;28;20227;-69
2021/07/18 10:07:23;;;;;;;4.15;3.75;;;;;;;25.08;53.38;101429.78;5009608;28;20252;-70
2021/07/18 10:09:51;;;;;;;4.70;3.85;;;;;;;25.15;52.38;101430.81;5009968;28;20218;-68
2021/07/18 10:12:18;;;;;;;4.93;3.83;;;;;;;25.21;52.09;101413.75;5009221;28;20203;-69
2021/07/18 10:14:45;;;;;;;4.30;3.90;;;;;;;25.28;52.62;101413.91;5007636;28;20215;-70
2021/07/18 10:17:12;;;;;;;5.15;3.70;;;;;;;25.37;52.29;101414.75;5007257;28;20205;-70
2021/07/18 10:19:38;;;;;;;4.10;3.13;;;;;;;25.42;51.43;101412.34;5007847;28;20202;-68
2021/07/18 10:22:06;;;;;;;4.30;3.33;;;;;;;25.49;51.46;101416.06;5002231;28;20209;-69
2021/07/18 10:24:35;;;;;;;3.90;3.55;;;;;;;25.50;51.51;101418.59;5000892;28;20219;-70
2021/07/18 10:27:03;;;;;;;4.78;3.20;;;;;;;25.52;51.46;101408.38;5002784;28;20226;-69
2021/07/18 10:29:31;;;;;;;3.60;2.97;;;;;;;25.63;51.55;101406.31;5000298;28;20241;-71
2021/07/18 10:32:01;;;;;;;4.05;2.70;;;;;;;25.68;51.09;101402.03;5000846;28;20207;-71
2021/07/18 10:34:31;;;;;;;4.50;2.88;;;;;;;25.79;51.39;101400.81;5002282;28;20230;-68
2021/07/18 10:36:58;;;;;;;3.15;2.83;;;;;;;25.90;50.55;101394.94;5006937;28;20202;-68
2021/07/18 10:39:29;;;;;;;3.40;2.92;;;;;;;25.95;50.17;101387.06;5006979;28;20199;-70
2021/07/18 10:41:57;;;;;;;3.35;2.90;;;;;;;25.95;50.11;101392.53;5006226;28;20203;-68
2021/07/18 10:44:24;;;;;;;3.45;2.63;;;;;;;25.95;49.89;101395.25;5007254;28;20226;-69
2021/07/18 10:46:57;;;;;;;2.92;2.53;;;;;;;25.98;50.06;101378.50;5008004;28;20608;-70
2021/07/18 10:49:49;;;;;;;4.90;3.00;;;;;;;26.02;49.78;101396.22;5008857;28;20293;-69
2021/07/18 10:52:16;;;;;;;3.38;2.80;;;;;;;26.06;49.48;101392.09;4997924;28;20586;-69
2021/07/18 10:54:43;;;;;;;2.55;2.35;;;;;;;26.11;49.72;101392.44;5003891;28;20241;-70
2021/07/18 10:57:22;;;;;;;3.15;2.70;;;;;;;26.20;49.65;101391.31;5008436;28;20543;-70
2021/07/18 10:59:49;;;;;;;3.83;2.40;;;;;;;26.26;49.35;101387.03;5006357;28;20689;-68
2021/07/18 11:02:17;;;;;;;4.38;2.72;;;;;;;26.26;49.14;101395.22;5007522;28;20323;-70
2021/07/18 11:04:45;;;;;;;4.13;2.88;;;;;;;26.33;48.96;101389.94;5006442;28;20269;-68
2021/07/18 11:07:42;;;;;;;2.58;2.38;;;;;;;26.35;48.72;101391.41;5008400;28;20234;-69
2021/07/18 11:10:15;;;;;;;4.55;2.50;;;;;;;26.42;48.45;101377.91;5005699;28;20211;-69
2021/07/18 11:12:48;;;;;;;2.85;2.47;;;;;;;26.47;47.93;101376.31;4999732;28;20293;-68
2021/07/18 11:15:39;;;;;;;2.75;2.47;;;;;;;26.49;47.97;101384.34;5002822;28;20230;-69
2021/07/18 11:18:11;;;;;;;3.40;2.50;;;;;;;26.46;47.23;101376.50;4990531;28;20222;-69
2021/07/18 11:20:44;;;;;;;3.45;2.50;;;;;;;26.48;48.12;101369.84;5008473;28;20253;-69
2021/07/18 11:23:11;;;;;;;2.53;2.40;;;;;;;26.62;47.74;101368.16;5007864;28;20298;-68
2021/07/18 11:25:49;;;;;;;2.90;2.60;;;;;;;26.73;47.42;101369.59;5007161;28;20700;-69